Time;durP1;ratioP1;P1;durP2;ratioP2;P2;SDS_P1;SDS_P2;PMS_P1;PMS_P2;Temp;Humidity;BMP_temperature;BMP_pressure;BME280_temperature;BME280_humidity;BME280_pressure;Samples;Min_cycle;Max_cycle;Signal;HPM_P1;HPM_P2
2021/08/09 00:01:36;;;;;;;14.75;2.85;;;;;;;24.83;43.04;99935.91;5073074;28;20221;-73
2021/08/09 00:04:03;;;;;;;16.83;2.80;;;;;;;24.80;43.22;99945.34;5079648;28;20047;-73
2021/08/09 00:06:29;;;;;;;8.60;2.40;;;;;;;24.87;43.15;99941.63;5081003;28;20028;-72
2021/08/09 00:08:55;;;;;;;6.68;2.78;;;;;;;24.56;43.79;99943.94;5065593;28;20304;-73
2021/08/09 00:11:20;;;;;;;7.60;2.58;;;;;;;24.52;44.07;99942.78;5065229;28;20032;-73
2021/08/09 00:13:47;;;;;;;12.98;2.83;;;;;;;24.54;43.72;99937.94;5067786;28;20081;-73
2021/08/09 00:16:13;;;;;;;6.38;2.63;;;;;;;24.37;43.42;99915.50;5073356;28;20322;-72
2021/08/09 00:18:42;;;;;;;4.30;2.42;;;;;;;24.60;42.34;99945.06;5067342;28;20035;-73
2021/08/09 00:21:07;;;;;;;8.40;2.80;;;;;;;24.47;43.01;99938.13;5066229;28;20359;-73
2021/08/09 00:23:33;;;;;;;6.38;2.72;;;;;;;24.40;42.73;99937.47;5062369;28;20056;-72
2021/08/09 00:25:58;;;;;;;4.68;2.40;;;;;;;24.30;43.03;99937.31;5064572;28;20114;-72
2021/08/09 00:28:24;;;;;;;6.38;2.85;;;;;;;24.26;43.42;99938.84;5058927;28;20103;-72
2021/08/09 00:30:49;;;;;;;6.93;2.58;;;;;;;24.36;43.42;99938.22;5067979;28;20036;-73
2021/08/09 00:33:14;;;;;;;5.47;2.75;;;;;;;24.50;43.16;99934.09;5065438;28;20025;-73
2021/08/09 00:35:40;;;;;;;6.97;2.80;;;;;;;24.63;43.14;99939.16;5071879;28;20351;-73
2021/08/09 00:38:05;;;;;;;3.92;2.65;;;;;;;24.77;42.47;99935.00;5069418;28;20048;-73
2021/08/09 00:40:31;;;;;;;4.78;2.65;;;;;;;24.85;42.27;99928.34;5069608;28;20030;-72
2021/08/09 00:42:56;;;;;;;5.95;2.47;;;;;;;24.93;41.97;99927.91;5076391;28;20074;-72
2021/08/09 00:45:22;;;;;;;4.65;2.60;;;;;;;24.83;42.35;99928.59;5070297;28;20036;-73
2021/08/09 00:47:47;;;;;;;6.82;2.42;;;;;;;24.80;42.58;99929.09;5073250;28;20028;-73
2021/08/09 00:50:13;;;;;;;10.27;2.65;;;;;;;24.75;42.62;99920.09;5074899;28;20036;-73
2021/08/09 00:52:40;;;;;;;6.88;2.70;;;;;;;24.85;42.48;99928.34;5074935;28;20182;-73
2021/08/09 00:55:07;;;;;;;4.10;2.90;;;;;;;24.94;42.35;99932.25;5069896;28;20047;-73
2021/08/09 00:57:33;;;;;;;3.95;2.80;;;;;;;24.92;42.41;99923.56;5063923;28;20265;-73
2021/08/09 00:59:59;;;;;;;6.50;3.00;;;;;;;24.91;42.63;99929.22;5072552;28;20032;-73
2021/08/09 01:02:25;;;;;;;7.53;2.85;;;;;;;24.94;43.38;99936.84;5072829;28;20112;-73
2021/08/09 01:04:50;;;;;;;4.50;2.60;;;;;;;24.89;43.23;99936.78;5066685;28;20235;-73
2021/08/09 01:07:16;;;;;;;10.70;3.05;;;;;;;24.88;43.49;99944.09;5065570;28;20039;-73
2021/08/09 01:10:01;;;;;;;7.13;3.00;;;;;;;24.93;42.91;99948.75;5062736;28;20044;-73
2021/08/09 01:12:34;;;;;;;6.45;2.50;;;;;;;24.86;43.25;99951.66;5070112;28;20052;-73
2021/08/09 01:15:02;;;;;;;4.70;2.50;;;;;;;24.88;42.98;99951.41;5070373;28;20613;-73
2021/08/09 01:17:32;;;;;;;5.53;2.15;;;;;;;24.75;44.05;99950.69;5070213;28;20033;-72
2021/08/09 01:20:28;;;;;;;9.68;2.70;;;;;;;24.73;43.97;99952.84;5070756;28;20036;-73
2021/08/09 01:22:53;;;;;;;8.65;3.17;;;;;;;24.61;44.33;99960.25;5067499;28;20036;-72
2021/08/09 01:25:43;;;;;;;9.18;2.65;;;;;;;24.62;44.85;99955.66;5069780;28;20040;-73
2021/08/09 01:28:09;;;;;;;6.75;2.63;;;;;;;24.55;44.59;99961.22;5063301;28;20358;-72
2021/08/09 01:30:37;;;;;;;10.70;2.92;;;;;;;24.43;45.52;99957.81;5062892;28;20044;-72
2021/08/09 01:33:04;;;;;;;6.88;2.63;;;;;;;24.51;44.61;99957.38;5076662;28;20315;-72
2021/08/09 01:35:29;;;;;;;4.25;2.50;;;;;;;24.40;45.12;99948.28;5074777;28;20094;-72
2021/08/09 01:37:58;;;;;;;5.45;2.58;;;;;;;24.28;45.45;99950.28;5074404;28;20358;-72
2021/08/09 01:40:24;;;;;;;10.63;2.78;;;;;;;24.19;46.15;99954.41;5069965;28;20260;-72
2021/08/09 01:42:50;;;;;;;8.20;2.53;;;;;;;24.23;46.01;99957.44;5074030;28;20213;-73
2021/08/09 01:45:16;;;;;;;5.85;3.03;;;;;;;24.18;45.87;99964.44;5071561;28;20086;-73
2021/08/09 01:47:44;;;;;;;8.60;2.90;;;;;;;24.11;46.10;99960.25;5066789;28;20099;-72
2021/08/09 01:50:12;;;;;;;11.05;2.60;;;;;;;23.84;46.88;99954.63;5070032;28;20039;-73
2021/08/09 01:52:39;;;;;;;5.93;3.00;;;;;;;23.81;46.86;99955.91;5074111;28;20106;-73
2021/08/09 01:55:07;;;;;;;10.95;3.10;;;;;;;23.83;46.73;99956.50;5073536;28;20028;-73
2021/08/09 01:57:34;;;;;;;6.38;3.03;;;;;;;23.87;46.46;99951.41;5077070;28;20388;-72
2021/08/09 01:59:59;;;;;;;5.32;3.00;;;;;;;23.82;46.72;99954.03;5066936;28;20024;-73
2021/08/09 02:02:30;;;;;;;7.63;2.80;;;;;;;23.63;47.13;99950.72;5070828;28;20217;-73
2021/08/09 02:04:56;;;;;;;3.97;2.30;;;;;;;23.53;47.63;99954.03;5074121;28;20025;-73
2021/08/09 02:07:21;;;;;;;12.85;2.80;;;;;;;23.49;47.75;99952.03;5074648;28;20459;-72
2021/08/09 02:09:47;;;;;;;7.50;2.60;;;;;;;23.27;48.56;99951.06;5071961;28;20095;-72
2021/08/09 02:12:13;;;;;;;14.35;3.08;;;;;;;23.41;48.12;99953.25;5078622;28;20158;-72
2021/08/09 02:14:49;;;;;;;6.75;3.00;;;;;;;23.35;48.55;99951.50;5075875;28;20180;-73
2021/08/09 02:17:20;;;;;;;7.78;3.00;;;;;;;23.33;48.89;99948.22;5078376;28;20070;-73
2021/08/09 02:20:01;;;;;;;13.50;3.15;;;;;;;23.68;47.50;99955.41;5082765;28;20360;-72
2021/08/09 02:22:41;;;;;;;10.75;3.03;;;;;;;23.61;47.87;99958.25;5076072;28;20056;-73
2021/08/09 02:25:11;;;;;;;9.45;3.30;;;;;;;23.61;47.69;99952.84;5064719;28;20040;-73
2021/08/09 02:28:14;;;;;;;11.68;3.63;;;;;;;23.65;47.90;99956.72;5069421;28;20273;-73
2021/08/09 02:30:50;;;;;;;7.47;3.22;;;;;;;23.56;48.29;99958.97;5041260;28;20056;-72
2021/08/09 02:33:17;;;;;;;7.68;3.17;;;;;;;23.45;48.71;99956.28;5065203;28;20047;-73
2021/08/09 02:35:44;;;;;;;11.18;3.53;;;;;;;23.50;48.71;99957.22;5067293;28;20029;-73
2021/08/09 02:38:10;;;;;;;11.05;3.20;;;;;;;23.52;48.51;99956.97;5066167;28;20036;-73
2021/08/09 02:40:36;;;;;;;6.68;3.15;;;;;;;23.69;48.02;99954.34;5075551;28;20602;-72
2021/08/09 02:43:02;;;;;;;10.68;2.88;;;;;;;23.65;47.54;99956.72;5072056;28;20039;-73
2021/08/09 02:45:28;;;;;;;9.73;3.28;;;;;;;23.32;48.50;99968.22;5075094;28;20035;-73
2021/08/09 02:47:54;;;;;;;7.10;2.95;;;;;;;23.35;48.45;99970.44;5070852;28;20225;-73
2021/08/09 02:50:20;;;;;;;12.23;3.55;;;;;;;23.39;48.66;99970.75;5070783;28;20035;-72
2021/08/09 02:52:47;;;;;;;7.53;2.75;;;;;;;23.42;48.36;99971.09;5065546;28;20102;-73
2021/08/09 02:55:15;;;;;;;8.50;3.00;;;;;;;23.39;48.47;99971.59;5061582;28;20035;-72
2021/08/09 02:57:41;;;;;;;9.73;3.30;;;;;;;23.24;48.85;99964.00;5072812;28;20115;-72
2021/08/09 03:00:08;;;;;;;6.15;3.15;;;;;;;23.11;49.37;99961.56;5077681;28;20040;-72
2021/08/09 03:02:40;;;;;;;6.93;2.88;;;;;;;23.12;49.53;99965.09;5072523;28;20041;-72
2021/08/09 03:05:07;;;;;;;5.80;3.47;;;;;;;23.09;49.59;99981.78;5065100;28;20097;-72
2021/08/09 03:07:36;;;;;;;9.23;3.28;;;;;;;22.93;49.94;99984.16;5066693;28;20234;-72
2021/08/09 03:10:05;;;;;;;7.82;3.63;;;;;;;22.76;50.71;99977.75;5069507;28;20038;-72
2021/08/09 03:12:30;;;;;;;10.38;3.88;;;;;;;22.75;50.58;99981.53;5062153;28;20322;-73
2021/08/09 03:14:56;;;;;;;4.82;3.47;;;;;;;22.81;50.42;99985.19;5074719;28;20327;-73
2021/08/09 03:17:21;;;;;;;7.97;3.10;;;;;;;23.07;49.09;99992.00;5067300;28;20029;-72
2021/08/09 03:19:46;;;;;;;8.57;3.03;;;;;;;22.91;49.75;99998.94;5077228;28;20330;-72
2021/08/09 03:22:12;;;;;;;18.05;3.67;;;;;;;22.83;50.10;100010.06;5069059;28;20024;-73
2021/08/09 03:24:38;;;;;;;9.98;3.30;;;;;;;22.83;50.15;100008.19;5070319;28;20033;-72
2021/08/09 03:27:05;;;;;;;10.23;3.47;;;;;;;22.86;50.00;100020.41;5060024;28;20063;-73
2021/08/09 03:29:30;;;;;;;8.77;3.45;;;;;;;22.74;50.38;100019.53;5068776;28;20059;-73
2021/08/09 03:31:56;;;;;;;7.80;3.30;;;;;;;22.55;50.75;100019.66;5072955;28;20096;-73
2021/08/09 03:34:21;;;;;;;11.98;3.53;;;;;;;22.62;50.85;100019.53;5062044;28;20021;-73
2021/08/09 03:36:49;;;;;;;15.15;4.22;;;;;;;22.53;51.33;100026.34;5081926;28;20153;-73
2021/08/09 03:39:16;;;;;;;20.35;4.43;;;;;;;22.35;51.92;100024.56;5079802;28;20099;-73
2021/08/09 03:41:41;;;;;;;12.75;4.75;;;;;;;21.99;53.54;100023.63;5067071;28;20044;-72
2021/08/09 03:44:07;;;;;;;9.05;4.45;;;;;;;22.09;53.44;100022.28;5067834;28;20036;-73
2021/08/09 03:46:33;;;;;;;14.35;4.07;;;;;;;22.26;53.07;100017.84;5068777;28;20144;-73
2021/08/09 03:48:59;;;;;;;10.20;4.18;;;;;;;22.68;51.79;100015.91;5062459;28;20040;-72
2021/08/09 03:51:24;;;;;;;19.83;4.15;;;;;;;22.75;51.75;100010.41;5069837;28;20349;-72
2021/08/09 03:53:50;;;;;;;10.20;4.65;;;;;;;22.85;51.68;100018.75;5065382;28;20031;-73
2021/08/09 03:56:16;;;;;;;16.55;4.78;;;;;;;22.67;51.43;100025.06;5069856;28;20055;-72
2021/08/09 03:58:41;;;;;;;14.50;3.88;;;;;;;22.68;51.43;100028.59;5069689;28;20040;-73
2021/08/09 04:01:07;;;;;;;11.38;4.30;;;;;;;22.69;51.34;100025.66;5069548;28;20226;-73
2021/08/09 04:03:35;;;;;;;17.65;4.53;;;;;;;22.75;51.77;100043.59;5075633;28;20081;-73
2021/08/09 04:06:00;;;;;;;18.05;4.47;;;;;;;22.63;52.16;100031.97;5061234;28;20040;-73
2021/08/09 04:08:26;;;;;;;94.45;43.80;;;;;;;22.84;51.70;100036.84;5060854;28;20036;-72
2021/08/09 04:10:51;;;;;;;115.00;56.88;;;;;;;23.05;50.90;100040.84;5064216;28;20040;-73
2021/08/09 04:13:18;;;;;;;81.43;35.17;;;;;;;23.08;50.25;100039.56;5067184;28;20032;-73
2021/08/09 04:15:43;;;;;;;28.48;14.70;;;;;;;23.18;49.94;100040.59;5072523;28;20337;-73
2021/08/09 04:18:09;;;;;;;35.92;16.65;;;;;;;23.11;50.28;100047.19;5066287;28;20031;-73
2021/08/09 04:20:34;;;;;;;103.70;48.85;;;;;;;23.07;50.40;100046.84;5071265;28;20252;-73
2021/08/09 04:23:00;;;;;;;132.75;60.35;;;;;;;22.99;50.71;100044.50;5070145;28;20350;-73
2021/08/09 04:25:28;;;;;;;44.92;22.65;;;;;;;23.03;50.65;100031.34;5063357;28;20223;-73
2021/08/09 04:27:53;;;;;;;32.83;13.00;;;;;;;23.17;50.57;100047.06;5058800;28;20055;-73
2021/08/09 04:30:19;;;;;;;24.13;11.20;;;;;;;23.28;50.44;100042.69;5067406;28;20036;-73
2021/08/09 04:32:44;;;;;;;26.23;10.30;;;;;;;23.23;50.42;100042.59;5064151;28;20037;-73
2021/08/09 04:35:11;;;;;;;17.08;7.38;;;;;;;23.45;49.62;100045.47;5063042;28;20032;-73
2021/08/09 04:37:38;;;;;;;27.27;6.93;;;;;;;23.41;49.52;100052.41;5068861;28;20053;-73
2021/08/09 04:40:05;;;;;;;21.10;5.97;;;;;;;23.58;49.15;100045.22;5069266;28;20096;-73
2021/08/09 04:42:31;;;;;;;20.88;6.70;;;;;;;23.81;48.91;100042.44;5060048;28;20342;-73
2021/08/09 04:44:57;;;;;;;15.85;7.28;;;;;;;24.04;48.78;100046.13;5068322;28;20040;-73
2021/08/09 04:47:22;;;;;;;18.83;5.90;;;;;;;24.28;48.42;100041.47;5067280;28;20028;-73
2021/08/09 04:49:48;;;;;;;15.25;4.32;;;;;;;24.42;48.59;100054.44;5061177;28;20036;-73
2021/08/09 04:52:13;;;;;;;8.90;3.92;;;;;;;24.70;47.98;100048.09;5059931;28;20033;-73
2021/08/09 04:54:39;;;;;;;10.40;4.55;;;;;;;25.04;46.89;100040.81;5063711;28;20032;-73
2021/08/09 04:57:04;;;;;;;15.75;4.20;;;;;;;25.37;46.19;100041.78;5071147;28;20032;-73
2021/08/09 04:59:30;;;;;;;27.42;6.35;;;;;;;25.50;45.69;100040.59;5069810;28;20460;-73
2021/08/09 05:01:55;;;;;;;26.77;5.88;;;;;;;25.83;45.19;100045.88;5069238;28;20037;-73
2021/08/09 05:04:20;;;;;;;17.10;5.13;;;;;;;26.13;43.98;100050.03;5070805;28;20225;-73
2021/08/09 05:06:48;;;;;;;21.73;4.72;;;;;;;26.39;43.56;100065.50;5069040;28;20307;-73
2021/08/09 05:09:14;;;;;;;10.15;4.65;;;;;;;26.64;42.85;100054.84;5080173;28;20066;-73
2021/08/09 05:11:39;;;;;;;7.95;3.78;;;;;;;26.88;41.75;100058.00;5076400;28;20040;-73
2021/08/09 05:14:05;;;;;;;12.10;3.90;;;;;;;27.19;41.18;100045.47;5075365;28;20027;-73
2021/08/09 05:16:33;;;;;;;10.25;3.92;;;;;;;27.50;40.44;100053.78;5071540;28;20103;-73
2021/08/09 05:19:02;;;;;;;11.18;3.53;;;;;;;27.61;39.79;100050.84;5075576;28;20063;-73
2021/08/09 05:21:31;;;;;;;8.10;3.30;;;;;;;27.91;39.48;100043.88;5065611;28;20352;-73
2021/08/09 05:24:01;;;;;;;6.75;3.33;;;;;;;28.40;38.58;100048.88;5077162;28;20029;-73
2021/08/09 05:26:26;;;;;;;10.95;3.58;;;;;;;28.91;37.38;100046.97;5067071;28;20041;-73
2021/08/09 05:28:52;;;;;;;11.60;4.07;;;;;;;29.18;36.28;100041.22;5079634;28;20233;-73
2021/08/09 05:31:17;;;;;;;7.35;3.35;;;;;;;29.57;35.80;100043.25;5083420;28;20021;-73
2021/08/09 05:33:43;;;;;;;11.23;3.08;;;;;;;29.71;35.23;100044.28;5071455;28;20037;-73
2021/08/09 05:36:09;;;;;;;7.10;3.08;;;;;;;30.15;34.48;100050.59;5074425;28;20383;-73
2021/08/09 05:38:35;;;;;;;7.55;2.80;;;;;;;30.23;34.64;100034.72;5077151;28;20135;-73
2021/08/09 05:41:05;;;;;;;7.57;2.85;;;;;;;30.64;33.98;100054.38;5076008;28;20103;-73
2021/08/09 05:43:31;;;;;;;9.63;3.63;;;;;;;31.04;33.09;100055.88;5075449;28;20082;-73
2021/08/09 05:45:56;;;;;;;14.82;3.42;;;;;;;31.28;32.71;100048.56;5076243;28;20090;-73
2021/08/09 05:48:22;;;;;;;7.55;3.50;;;;;;;31.46;31.89;100046.97;5078628;28;20488;-73
2021/08/09 05:50:47;;;;;;;8.95;3.45;;;;;;;31.66;31.83;100041.22;5073486;28;20036;-73
2021/08/09 05:53:13;;;;;;;9.13;3.67;;;;;;;31.91;31.32;100045.56;5076693;28;20032;-73
2021/08/09 05:55:38;;;;;;;6.07;2.83;;;;;;;32.11;29.86;100041.72;5075091;28;20028;-73
2021/08/09 05:58:04;;;;;;;15.23;3.20;;;;;;;32.42;29.38;100046.75;5076793;28;20032;-73
2021/08/09 06:00:29;;;;;;;8.38;3.30;;;;;;;32.57;28.96;100046.50;5079001;28;20330;-73
2021/08/09 06:02:55;;;;;;;12.88;3.17;;;;;;;32.42;28.54;100046.75;5083182;28;20051;-73
2021/08/09 06:05:20;;;;;;;9.82;3.28;;;;;;;32.25;28.17;100047.28;5083494;28;20032;-73
2021/08/09 06:07:46;;;;;;;9.90;2.90;;;;;;;32.40;28.09;100049.81;5082416;28;20044;-73
2021/08/09 06:10:11;;;;;;;13.13;3.30;;;;;;;32.17;28.63;100050.66;5083589;28;20020;-73
2021/08/09 06:12:37;;;;;;;5.60;3.17;;;;;;;32.16;28.67;100049.03;5081783;28;20044;-73
2021/08/09 06:15:07;;;;;;;8.68;2.80;;;;;;;31.76;28.79;100048.53;5082913;28;20078;-73
2021/08/09 06:17:34;;;;;;;18.00;3.75;;;;;;;31.96;28.58;100047.41;5082834;28;20040;-73
2021/08/09 06:20:00;;;;;;;7.65;3.10;;;;;;;31.98;28.76;100048.75;5083172;28;20044;-73
2021/08/09 06:22:25;;;;;;;6.90;3.30;;;;;;;32.25;28.66;100044.53;5082939;28;20334;-73
2021/08/09 06:24:51;;;;;;;6.88;3.50;;;;;;;32.54;27.99;100042.44;5081624;28;20032;-73
2021/08/09 06:27:16;;;;;;;7.60;3.30;;;;;;;32.09;28.51;100043.94;5082427;28;20076;-73
2021/08/09 06:29:41;;;;;;;5.95;2.88;;;;;;;32.45;28.38;100040.69;5082840;28;20032;-73
2021/08/09 06:32:07;;;;;;;10.15;3.55;;;;;;;32.55;28.30;100044.06;5082701;28;20121;-73
2021/08/09 06:34:33;;;;;;;9.02;3.33;;;;;;;32.55;28.52;100043.25;5082619;28;20028;-73
2021/08/09 06:36:58;;;;;;;8.02;3.10;;;;;;;32.69;28.37;100044.91;5082503;28;20043;-73
2021/08/09 06:39:23;;;;;;;8.82;3.70;;;;;;;33.00;27.90;100041.63;5082897;28;20032;-73
2021/08/09 06:41:49;;;;;;;11.02;3.67;;;;;;;33.20;27.45;100030.25;5082488;28;20206;-73
2021/08/09 06:44:15;;;;;;;10.02;3.90;;;;;;;33.39;27.35;100034.88;5082508;28;20257;-73
2021/08/09 06:46:40;;;;;;;11.43;3.92;;;;;;;33.40;27.19;100036.50;5082131;28;20063;-73
2021/08/09 06:49:06;;;;;;;6.72;3.95;;;;;;;33.45;27.11;100034.47;5081999;28;20033;-73
2021/08/09 06:51:32;;;;;;;12.20;4.57;;;;;;;33.43;27.88;100033.16;5082012;28;20037;-74
2021/08/09 06:53:57;;;;;;;10.55;3.50;;;;;;;33.40;28.28;100023.59;5081098;28;20040;-73
2021/08/09 06:56:23;;;;;;;15.38;3.95;;;;;;;33.50;27.76;100022.56;5076728;28;20037;-73
2021/08/09 06:58:48;;;;;;;11.45;3.80;;;;;;;33.12;27.87;100022.75;5076157;28;20337;-74
2021/08/09 07:01:14;;;;;;;14.95;3.63;;;;;;;33.39;28.23;100026.66;5071604;28;20086;-73
2021/08/09 07:03:39;;;;;;;11.73;3.63;;;;;;;34.07;27.54;100020.22;5076044;28;20052;-73
2021/08/09 07:06:04;;;;;;;15.23;5.38;;;;;;;34.47;26.75;100013.75;5075794;28;20025;-73
2021/08/09 07:08:30;;;;;;;10.50;3.38;;;;;;;34.72;26.25;100020.53;5073045;28;20021;-73
2021/08/09 07:10:55;;;;;;;11.82;3.40;;;;;;;33.91;27.20;100022.50;5075177;28;20032;-73
2021/08/09 07:13:21;;;;;;;7.03;3.60;;;;;;;34.48;26.09;100020.06;5077245;28;20060;-73
2021/08/09 07:15:46;;;;;;;9.25;3.40;;;;;;;34.51;25.95;100020.25;5074834;28;20028;-74
2021/08/09 07:18:14;;;;;;;14.23;3.72;;;;;;;34.58;25.57;100017.88;5076301;28;20036;-74
2021/08/09 07:20:40;;;;;;;11.65;3.60;;;;;;;34.36;25.66;100015.16;5073903;28;20044;-74
2021/08/09 07:23:05;;;;;;;5.90;2.92;;;;;;;34.09;25.78;100031.69;5071370;28;20063;-74
2021/08/09 07:25:32;;;;;;;5.22;3.10;;;;;;;34.42;25.69;100019.38;5075301;28;20035;-74
2021/08/09 07:27:58;;;;;;;8.65;3.35;;;;;;;34.28;25.86;100021.34;5071047;28;20095;-74
2021/08/09 07:30:23;;;;;;;4.13;2.97;;;;;;;34.78;24.94;100019.28;5073608;28;20050;-73
2021/08/09 07:32:49;;;;;;;4.10;2.78;;;;;;;35.10;24.18;100011.81;5074847;28;20325;-74
2021/08/09 07:35:15;;;;;;;7.03;3.17;;;;;;;35.44;23.67;100016.66;5074871;28;20028;-74
2021/08/09 07:37:40;;;;;;;7.18;3.03;;;;;;;35.18;23.46;100005.53;5074948;28;20041;-74
2021/08/09 07:40:07;;;;;;;10.20;3.10;;;;;;;35.24;24.59;100011.69;5075635;28;20037;-73
2021/08/09 07:42:32;;;;;;;6.68;2.90;;;;;;;35.56;23.93;100007.78;5075069;28;20036;-73
2021/08/09 07:44:58;;;;;;;43.40;4.63;;;;;;;35.75;23.04;100009.09;5075327;28;20335;-73
2021/08/09 07:47:23;;;;;;;12.57;3.13;;;;;;;36.19;23.30;100000.84;5074803;28;20091;-73
2021/08/09 07:49:49;;;;;;;25.63;4.05;;;;;;;36.02;23.33;100005.22;5075367;28;20059;-73
2021/08/09 07:52:15;;;;;;;10.80;3.30;;;;;;;35.88;23.41;100006.53;5075770;28;20044;-73
2021/08/09 07:54:40;;;;;;;18.27;3.50;;;;;;;35.69;23.18;100006.81;5075863;28;20042;-73
2021/08/09 07:57:06;;;;;;;10.90;2.72;;;;;;;35.82;22.56;100003.94;5073941;28;20055;-74
2021/08/09 07:59:32;;;;;;;21.08;3.17;;;;;;;36.25;22.84;100005.03;5076127;28;20032;-73
2021/08/09 08:02:01;;;;;;;103.57;8.88;;;;;;;36.36;22.30;100007.16;5073488;28;20067;-74
2021/08/09 08:04:27;;;;;;;16.15;3.20;;;;;;;36.54;22.08;100001.63;5073135;28;20183;-73
2021/08/09 08:06:52;;;;;;;19.33;2.97;;;;;;;36.50;22.89;100004.25;5076566;28;20036;-73
2021/08/09 08:09:18;;;;;;;8.80;3.08;;;;;;;36.36;22.72;100004.41;5074601;28;20036;-73
2021/08/09 08:11:43;;;;;;;5.93;2.65;;;;;;;36.50;21.65;100004.25;5074873;28;20047;-73
2021/08/09 08:14:09;;;;;;;12.68;2.78;;;;;;;36.26;22.91;99995.63;5073860;28;20215;-73
2021/08/09 08:16:35;;;;;;;25.55;4.00;;;;;;;36.54;22.20;99996.13;5072296;28;20326;-73
2021/08/09 08:19:01;;;;;;;5.90;2.83;;;;;;;36.62;22.55;99989.75;5074365;28;20024;-73
2021/08/09 08:21:26;;;;;;;8.57;2.80;;;;;;;36.55;22.33;99992.22;5075359;28;20036;-73
2021/08/09 08:23:51;;;;;;;5.22;2.17;;;;;;;37.06;21.76;99985.72;5074894;28;20025;-73
2021/08/09 08:26:17;;;;;;;27.00;3.85;;;;;;;37.38;21.69;99984.25;5075371;28;20036;-73
2021/08/09 08:28:42;;;;;;;9.32;2.50;;;;;;;37.26;21.63;99984.97;5073876;28;20321;-73
2021/08/09 08:31:08;;;;;;;8.32;2.90;;;;;;;37.31;22.60;99975.69;5073805;28;20025;-73
2021/08/09 08:33:33;;;;;;;8.88;3.00;;;;;;;37.52;21.79;99982.06;5073664;28;20047;-73
2021/08/09 08:35:59;;;;;;;3.58;2.53;;;;;;;37.67;21.22;99980.66;5073255;28;20039;-73
2021/08/09 08:38:24;;;;;;;9.48;2.67;;;;;;;37.87;21.26;99979.06;5075633;28;20317;-73
2021/08/09 08:40:52;;;;;;;6.40;2.67;;;;;;;37.87;21.06;99971.56;5073692;28;20091;-73
2021/08/09 08:43:27;;;;;;;6.40;3.03;;;;;;;38.16;21.80;99978.97;5075210;28;20101;-73
2021/08/09 08:45:56;;;;;;;4.25;2.70;;;;;;;37.74;21.35;99969.91;5071659;28;20036;-73
2021/08/09 08:48:23;;;;;;;4.13;2.75;;;;;;;37.87;22.08;99970.75;5076285;28;20028;-73
2021/08/09 08:50:48;;;;;;;10.70;2.72;;;;;;;37.91;21.49;99964.22;5072432;28;20044;-73
2021/08/09 08:53:14;;;;;;;10.55;2.67;;;;;;;37.99;20.97;99970.81;5073700;28;20106;-73
2021/08/09 08:55:39;;;;;;;6.53;2.85;;;;;;;37.79;21.93;99971.66;5074261;28;20040;-73
2021/08/09 08:58:05;;;;;;;10.07;2.65;;;;;;;37.97;20.66;99965.63;5076172;28;20036;-73
2021/08/09 09:00:39;;;;;;;6.15;2.30;;;;;;;37.67;21.88;99969.59;5077052;28;20040;-73
2021/08/09 09:03:16;;;;;;;6.57;2.80;;;;;;;37.92;21.32;99963.06;5080398;28;20213;-73
2021/08/09 09:05:54;;;;;;;12.85;2.85;;;;;;;38.10;21.29;99960.94;5080364;28;20315;-73
2021/08/09 09:08:44;;;;;;;8.45;2.50;;;;;;;37.75;20.61;99960.47;5080189;28;20047;-73
2021/08/09 09:11:22;;;;;;;8.35;2.40;;;;;;;37.36;20.92;99965.25;5080080;28;20033;-73
2021/08/09 09:13:54;;;;;;;5.00;2.67;;;;;;;37.30;21.03;99968.53;5080819;28;20032;-73
2021/08/09 09:16:20;;;;;;;4.15;2.10;;;;;;;37.22;21.74;99966.63;5079547;28;20103;-73
2021/08/09 09:18:58;;;;;;;4.50;2.22;;;;;;;37.13;21.62;99957.56;5080163;28;20044;-73
2021/08/09 09:21:45;;;;;;;3.78;2.67;;;;;;;36.73;22.67;99952.41;5079976;28;20063;-73
2021/08/09 09:24:12;;;;;;;10.23;2.50;;;;;;;36.93;22.50;99953.63;5080152;28;20037;-73
2021/08/09 09:26:39;;;;;;;3.60;2.67;;;;;;;37.12;22.19;99944.91;5079982;28;20225;-73
2021/08/09 09:29:10;;;;;;;4.57;2.40;;;;;;;37.12;21.59;99933.88;5079810;28;20048;-73
2021/08/09 09:31:36;;;;;;;5.93;2.72;;;;;;;37.35;22.06;99930.50;5080365;28;20027;-73
2021/08/09 09:34:09;;;;;;;5.28;2.30;;;;;;;37.34;22.46;99928.88;5080113;28;20317;-73
2021/08/09 09:37:07;;;;;;;4.78;2.25;;;;;;;37.16;21.89;99932.88;5080094;28;20226;-73
2021/08/09 09:39:40;;;;;;;5.28;2.50;;;;;;;37.03;22.64;99934.75;5045716;28;20059;-73
2021/08/09 09:42:07;;;;;;;;;;;;;;;37.00;22.15;99934.59;5080692;28;20036;-73
2021/08/09 09:44:35;;;;;;;6.07;2.40;;;;;;;36.28;22.71;99932.72;5080152;28;19912;-73
2021/08/09 09:47:26;;;;;;;7.90;2.65;;;;;;;36.00;23.18;99933.09;5082707;28;20040;-73
2021/08/09 09:49:59;;;;;;;9.55;2.50;;;;;;;35.97;23.09;99930.19;5083580;28;20036;-73
2021/08/09 09:52:36;;;;;;;4.13;2.90;;;;;;;35.83;23.23;99924.84;5082344;28;20032;-73
2021/08/09 09:55:05;;;;;;;5.10;2.10;;;;;;;35.93;23.37;99926.47;5083577;28;20386;-73
2021/08/09 09:57:31;;;;;;;6.22;2.58;;;;;;;35.88;24.24;99921.13;5082563;28;20335;-73
2021/08/09 09:59:58;;;;;;;5.45;2.50;;;;;;;35.79;23.99;99919.16;5083470;28;20298;-73
2021/08/09 10:02:24;;;;;;;4.93;2.50;;;;;;;35.93;23.33;99912.69;5079480;28;20055;-73
2021/08/09 10:04:51;;;;;;;3.65;2.17;;;;;;;36.11;23.97;99917.03;5073889;28;20028;-73
2021/08/09 10:07:20;;;;;;;4.88;2.55;;;;;;;36.07;23.42;99916.88;5078004;28;20120;-73
2021/08/09 10:09:48;;;;;;;4.70;2.65;;;;;;;36.04;22.78;99913.97;5076086;28;20044;-73
2021/08/09 10:12:17;;;;;;;5.13;2.53;;;;;;;36.17;22.29;99912.94;5073531;28;20183;-73
2021/08/09 10:14:43;;;;;;;6.68;2.60;;;;;;;35.74;23.27;99913.00;5072993;28;20051;-73
2021/08/09 10:17:09;;;;;;;5.28;2.75;;;;;;;35.92;22.86;99911.06;5077393;28;20024;-73
2021/08/09 10:19:35;;;;;;;6.03;2.55;;;;;;;35.57;23.04;99902.81;5075771;28;20040;-73
2021/08/09 10:22:01;;;;;;;10.13;2.85;;;;;;;35.64;23.58;99900.38;5075506;28;20040;-73
2021/08/09 10:24:39;;;;;;;3.95;2.55;;;;;;;35.77;23.38;99912.34;5075248;28;20043;-73
2021/08/09 10:27:06;;;;;;;4.70;2.88;;;;;;;36.00;23.30;99905.53;5076260;28;20029;-73
2021/08/09 10:29:31;;;;;;;5.13;2.92;;;;;;;35.94;22.54;99906.84;5077321;28;20040;-73
2021/08/09 10:32:26;;;;;;;6.97;2.40;;;;;;;35.74;22.80;99904.72;5076407;28;20340;-73
2021/08/09 10:34:52;;;;;;;4.07;2.72;;;;;;;35.77;23.02;99904.09;5062467;28;20048;-73
2021/08/09 10:37:23;;;;;;;6.53;2.30;;;;;;;35.61;23.79;99903.78;5076699;28;20035;-73
2021/08/09 10:40:03;;;;;;;3.15;2.20;;;;;;;35.54;23.69;99902.63;5076749;28;20033;-73
2021/08/09 10:42:40;;;;;;;13.52;2.90;;;;;;;35.51;23.22;99904.09;5072745;28;20048;-73
2021/08/09 10:45:10;;;;;;;7.18;2.67;;;;;;;35.85;22.44;99894.22;5075437;28;20037;-73
2021/08/09 10:47:45;;;;;;;7.50;2.65;;;;;;;35.85;22.38;99895.03;5077989;28;20028;-73
2021/08/09 10:50:31;;;;;;;7.50;2.80;;;;;;;35.82;22.12;99899.25;5077076;28;20409;-73
2021/08/09 10:52:58;;;;;;;6.38;2.47;;;;;;;35.70;23.50;99888.03;5078094;28;20078;-73
2021/08/09 10:55:35;;;;;;;3.45;2.70;;;;;;;35.83;22.78;99887.09;5074612;28;20345;-73
2021/08/09 10:58:02;;;;;;;7.35;2.47;;;;;;;35.68;22.93;99865.53;5072780;28;20318;-73
2021/08/09 11:00:40;;;;;;;18.77;3.30;;;;;;;35.60;22.08;99880.13;5075696;28;20077;-73
2021/08/09 11:03:10;;;;;;;7.82;2.47;;;;;;;35.54;22.68;99880.59;5081460;28;20091;-73
2021/08/09 11:05:36;;;;;;;4.25;2.30;;;;;;;35.60;23.05;99879.31;5082183;28;20032;-73
2021/08/09 11:08:13;;;;;;;5.70;2.65;;;;;;;35.52;22.24;99880.94;5081682;28;20028;-73
2021/08/09 11:10:51;;;;;;;5.88;2.35;;;;;;;35.58;21.98;99876.88;5080821;28;20388;-73
2021/08/09 11:13:17;;;;;;;7.22;2.38;;;;;;;35.62;23.06;99874.28;5082314;28;20040;-73
2021/08/09 11:16:03;;;;;;;4.68;2.17;;;;;;;35.90;22.28;99866.50;5081380;28;20037;-73
2021/08/09 11:18:31;;;;;;;5.28;2.40;;;;;;;36.01;21.69;99863.06;5081880;28;20036;-73
2021/08/09 11:21:16;;;;;;;6.95;2.75;;;;;;;36.03;23.17;99858.03;5080595;28;20070;-73
2021/08/09 11:23:45;;;;;;;4.82;2.70;;;;;;;36.05;22.06;99860.47;5081747;28;20198;-73
2021/08/09 11:26:22;;;;;;;8.30;2.70;;;;;;;36.06;22.06;99860.13;5081509;28;20322;-73
2021/08/09 11:29:05;;;;;;;28.70;4.05;;;;;;;36.12;22.71;99850.53;5080261;28;20052;-73
2021/08/09 11:31:45;;;;;;;6.30;2.80;;;;;;;36.22;22.40;99840.28;5081399;28;20031;-73